sensor_id;sensor_type;location;lat;lon;timestamp;P1;durP1;ratioP1;P2;durP2;ratioP2
72904;SDS011;61048;52.162;4.516;2022-12-07T00:01:26;2.22;;;0.70;;
72904;SDS011;61048;52.162;4.516;2022-12-07T00:03:56;2.65;;;0.80;;
72904;SDS011;61048;52.162;4.516;2022-12-07T00:06:29;4.75;;;0.50;;
72904;SDS011;61048;52.162;4.516;2022-12-07T00:08:57;3.10;;;0.57;;
72904;SDS011;61048;52.162;4.516;2022-12-07T00:11:24;3.38;;;0.40;;
72904;SDS011;61048;52.162;4.516;2022-12-07T00:13:51;3.17;;;0.63;;
72904;SDS011;61048;52.162;4.516;2022-12-07T00:16:20;2.72;;;0.50;;
72904;SDS011;61048;52.162;4.516;2022-12-07T00:18:48;4.60;;;0.95;;
72904;SDS011;61048;52.162;4.516;2022-12-07T00:21:16;2.03;;;0.52;;
72904;SDS011;61048;52.162;4.516;2022-12-07T00:23:45;2.70;;;0.57;;
72904;SDS011;61048;52.162;4.516;2022-12-07T00:26:14;2.80;;;0.60;;
72904;SDS011;61048;52.162;4.516;2022-12-07T00:28:44;5.00;;;0.73;;
72904;SDS011;61048;52.162;4.516;2022-12-07T00:31:13;2.63;;;0.40;;
72904;SDS011;61048;52.162;4.516;2022-12-07T00:33:41;5.20;;;0.70;;
72904;SDS011;61048;52.162;4.516;2022-12-07T00:36:09;3.58;;;0.50;;
72904;SDS011;61048;52.162;4.516;2022-12-07T00:38:39;3.60;;;0.77;;
72904;SDS011;61048;52.162;4.516;2022-12-07T00:41:06;2.58;;;0.50;;
72904;SDS011;61048;52.162;4.516;2022-12-07T00:43:36;2.17;;;0.35;;
72904;SDS011;61048;52.162;4.516;2022-12-07T00:46:03;3.75;;;0.45;;
72904;SDS011;61048;52.162;4.516;2022-12-07T00:48:30;2.40;;;0.60;;
72904;SDS011;61048;52.162;4.516;2022-12-07T00:50:57;2.65;;;0.60;;
72904;SDS011;61048;52.162;4.516;2022-12-07T00:53:24;3.83;;;0.98;;
72904;SDS011;61048;52.162;4.516;2022-12-07T00:55:53;2.22;;;0.52;;
72904;SDS011;61048;52.162;4.516;2022-12-07T00:58:21;2.88;;;0.60;;
72904;SDS011;61048;52.162;4.516;2022-12-07T01:00:48;1.95;;;0.40;;
72904;SDS011;61048;52.162;4.516;2022-12-07T01:03:16;2.38;;;0.35;;
72904;SDS011;61048;52.162;4.516;2022-12-07T01:05:48;3.05;;;0.60;;
72904;SDS011;61048;52.162;4.516;2022-12-07T01:08:16;2.88;;;1.00;;
72904;SDS011;61048;52.162;4.516;2022-12-07T01:10:43;1.05;;;0.30;;
72904;SDS011;61048;52.162;4.516;2022-12-07T01:13:12;5.13;;;0.30;;
72904;SDS011;61048;52.162;4.516;2022-12-07T01:15:39;1.63;;;0.47;;
72904;SDS011;61048;52.162;4.516;2022-12-07T01:18:06;1.55;;;0.35;;
72904;SDS011;61048;52.162;4.516;2022-12-07T01:20:33;1.25;;;0.30;;
72904;SDS011;61048;52.162;4.516;2022-12-07T01:23:01;2.65;;;0.47;;
72904;SDS011;61048;52.162;4.516;2022-12-07T01:25:28;3.58;;;0.68;;
72904;SDS011;61048;52.162;4.516;2022-12-07T01:27:55;3.65;;;0.40;;
72904;SDS011;61048;52.162;4.516;2022-12-07T01:30:23;1.35;;;0.22;;
72904;SDS011;61048;52.162;4.516;2022-12-07T01:32:50;2.55;;;0.40;;
72904;SDS011;61048;52.162;4.516;2022-12-07T01:35:17;2.40;;;0.30;;
72904;SDS011;61048;52.162;4.516;2022-12-07T01:37:44;2.03;;;0.40;;
72904;SDS011;61048;52.162;4.516;2022-12-07T01:40:11;1.17;;;0.20;;
72904;SDS011;61048;52.162;4.516;2022-12-07T01:42:38;1.88;;;0.68;;
72904;SDS011;61048;52.162;4.516;2022-12-07T01:48:10;4.43;;;0.98;;
72904;SDS011;61048;52.162;4.516;2022-12-07T01:50:41;2.25;;;0.68;;
72904;SDS011;61048;52.162;4.516;2022-12-07T01:53:09;1.98;;;0.32;;
72904;SDS011;61048;52.162;4.516;2022-12-07T01:55:37;2.17;;;0.68;;
72904;SDS011;61048;52.162;4.516;2022-12-07T01:58:06;2.50;;;0.98;;
72904;SDS011;61048;52.162;4.516;2022-12-07T02:00:34;1.15;;;0.30;;
72904;SDS011;61048;52.162;4.516;2022-12-07T02:03:03;1.52;;;0.30;;
72904;SDS011;61048;52.162;4.516;2022-12-07T02:05:33;3.30;;;0.65;;
72904;SDS011;61048;52.162;4.516;2022-12-07T02:08:01;4.47;;;0.30;;
72904;SDS011;61048;52.162;4.516;2022-12-07T02:10:30;1.65;;;0.22;;
72904;SDS011;61048;52.162;4.516;2022-12-07T02:12:58;3.95;;;0.43;;
72904;SDS011;61048;52.162;4.516;2022-12-07T02:15:28;1.48;;;0.50;;
72904;SDS011;61048;52.162;4.516;2022-12-07T02:18:05;2.67;;;0.28;;
72904;SDS011;61048;52.162;4.516;2022-12-07T02:20:37;2.13;;;0.60;;
72904;SDS011;61048;52.162;4.516;2022-12-07T02:23:16;0.98;;;0.20;;
72904;SDS011;61048;52.162;4.516;2022-12-07T02:26:35;1.27;;;0.22;;
72904;SDS011;61048;52.162;4.516;2022-12-07T02:29:38;2.55;;;0.50;;
72904;SDS011;61048;52.162;4.516;2022-12-07T02:32:12;1.52;;;0.20;;
72904;SDS011;61048;52.162;4.516;2022-12-07T02:34:44;4.47;;;1.02;;
72904;SDS011;61048;52.162;4.516;2022-12-07T02:37:19;2.25;;;0.63;;
72904;SDS011;61048;52.162;4.516;2022-12-07T02:39:54;2.72;;;0.30;;
72904;SDS011;61048;52.162;4.516;2022-12-07T02:42:26;1.40;;;0.60;;
72904;SDS011;61048;52.162;4.516;2022-12-07T02:44:59;3.00;;;0.52;;
72904;SDS011;61048;52.162;4.516;2022-12-07T02:47:28;4.00;;;0.50;;
72904;SDS011;61048;52.162;4.516;2022-12-07T02:49:55;1.75;;;0.30;;
72904;SDS011;61048;52.162;4.516;2022-12-07T02:52:22;2.03;;;0.60;;
72904;SDS011;61048;52.162;4.516;2022-12-07T02:54:49;1.25;;;0.20;;
72904;SDS011;61048;52.162;4.516;2022-12-07T02:57:23;2.88;;;0.38;;
72904;SDS011;61048;52.162;4.516;2022-12-07T03:00:03;1.63;;;0.40;;
72904;SDS011;61048;52.162;4.516;2022-12-07T03:02:38;5.35;;;1.17;;
72904;SDS011;61048;52.162;4.516;2022-12-07T03:05:18;2.40;;;0.95;;
72904;SDS011;61048;52.162;4.516;2022-12-07T03:07:56;1.58;;;0.20;;
72904;SDS011;61048;52.162;4.516;2022-12-07T03:10:32;1.70;;;0.20;;
72904;SDS011;61048;52.162;4.516;2022-12-07T03:13:07;1.52;;;0.20;;
72904;SDS011;61048;52.162;4.516;2022-12-07T03:15:41;2.20;;;0.30;;
72904;SDS011;61048;52.162;4.516;2022-12-07T03:18:13;3.33;;;0.30;;
72904;SDS011;61048;52.162;4.516;2022-12-07T03:20:44;1.88;;;0.15;;
72904;SDS011;61048;52.162;4.516;2022-12-07T03:23:14;4.18;;;0.50;;
72904;SDS011;61048;52.162;4.516;2022-12-07T03:25:45;2.20;;;0.63;;
72904;SDS011;61048;52.162;4.516;2022-12-07T03:28:16;1.13;;;0.15;;
72904;SDS011;61048;52.162;4.516;2022-12-07T03:30:51;2.72;;;0.20;;
72904;SDS011;61048;52.162;4.516;2022-12-07T03:33:22;2.10;;;0.30;;
72904;SDS011;61048;52.162;4.516;2022-12-07T03:35:57;2.53;;;0.40;;
72904;SDS011;61048;52.162;4.516;2022-12-07T03:38:31;1.65;;;0.50;;
72904;SDS011;61048;52.162;4.516;2022-12-07T03:41:04;1.75;;;0.35;;
72904;SDS011;61048;52.162;4.516;2022-12-07T03:43:34;1.08;;;0.32;;
72904;SDS011;61048;52.162;4.516;2022-12-07T03:46:06;1.55;;;0.30;;
72904;SDS011;61048;52.162;4.516;2022-12-07T03:48:46;2.17;;;0.28;;
72904;SDS011;61048;52.162;4.516;2022-12-07T03:51:24;1.83;;;0.90;;
72904;SDS011;61048;52.162;4.516;2022-12-07T03:53:57;1.88;;;0.28;;
72904;SDS011;61048;52.162;4.516;2022-12-07T03:56:28;1.92;;;0.30;;
72904;SDS011;61048;52.162;4.516;2022-12-07T03:58:56;2.08;;;0.30;;
72904;SDS011;61048;52.162;4.516;2022-12-07T04:01:24;1.23;;;0.30;;
72904;SDS011;61048;52.162;4.516;2022-12-07T04:03:51;1.27;;;0.57;;
72904;SDS011;61048;52.162;4.516;2022-12-07T04:06:18;1.48;;;0.32;;
72904;SDS011;61048;52.162;4.516;2022-12-07T04:08:45;1.48;;;0.20;;
72904;SDS011;61048;52.162;4.516;2022-12-07T04:11:12;2.15;;;0.20;;
72904;SDS011;61048;52.162;4.516;2022-12-07T04:13:39;1.05;;;0.17;;
72904;SDS011;61048;52.162;4.516;2022-12-07T04:16:24;2.08;;;0.13;;
72904;SDS011;61048;52.162;4.516;2022-12-07T04:18:51;2.97;;;0.30;;
72904;SDS011;61048;52.162;4.516;2022-12-07T04:21:18;1.02;;;0.20;;
72904;SDS011;61048;52.162;4.516;2022-12-07T04:23:45;1.23;;;0.30;;
72904;SDS011;61048;52.162;4.516;2022-12-07T04:26:12;1.45;;;0.20;;
72904;SDS011;61048;52.162;4.516;2022-12-07T04:28:39;1.25;;;0.40;;
72904;SDS011;61048;52.162;4.516;2022-12-07T04:31:05;3.45;;;0.30;;
72904;SDS011;61048;52.162;4.516;2022-12-07T04:33:34;2.13;;;0.20;;
72904;SDS011;61048;52.162;4.516;2022-12-07T04:36:02;1.15;;;0.20;;
72904;SDS011;61048;52.162;4.516;2022-12-07T04:38:29;2.15;;;0.20;;
72904;SDS011;61048;52.162;4.516;2022-12-07T04:40:55;1.58;;;0.50;;
72904;SDS011;61048;52.162;4.516;2022-12-07T04:43:22;1.85;;;0.20;;
72904;SDS011;61048;52.162;4.516;2022-12-07T04:45:49;1.85;;;0.20;;
72904;SDS011;61048;52.162;4.516;2022-12-07T04:48:16;4.63;;;0.30;;
72904;SDS011;61048;52.162;4.516;2022-12-07T04:50:47;2.70;;;0.30;;
72904;SDS011;61048;52.162;4.516;2022-12-07T04:53:14;2.33;;;0.32;;
72904;SDS011;61048;52.162;4.516;2022-12-07T04:55:41;1.33;;;0.20;;
72904;SDS011;61048;52.162;4.516;2022-12-07T04:58:08;4.15;;;0.82;;
72904;SDS011;61048;52.162;4.516;2022-12-07T05:00:35;2.63;;;0.30;;
72904;SDS011;61048;52.162;4.516;2022-12-07T05:03:02;1.48;;;0.32;;
72904;SDS011;61048;52.162;4.516;2022-12-07T05:05:29;1.50;;;0.40;;
72904;SDS011;61048;52.162;4.516;2022-12-07T05:07:58;2.78;;;0.20;;
72904;SDS011;61048;52.162;4.516;2022-12-07T05:10:24;3.03;;;0.52;;
72904;SDS011;61048;52.162;4.516;2022-12-07T05:12:51;0.80;;;0.10;;
72904;SDS011;61048;52.162;4.516;2022-12-07T05:15:18;1.80;;;0.30;;
72904;SDS011;61048;52.162;4.516;2022-12-07T05:17:45;4.28;;;0.30;;
72904;SDS011;61048;52.162;4.516;2022-12-07T05:20:12;1.75;;;0.28;;
72904;SDS011;61048;52.162;4.516;2022-12-07T05:22:39;1.55;;;0.45;;
72904;SDS011;61048;52.162;4.516;2022-12-07T05:25:08;1.95;;;0.95;;
72904;SDS011;61048;52.162;4.516;2022-12-07T05:27:35;4.00;;;0.43;;
72904;SDS011;61048;52.162;4.516;2022-12-07T05:30:02;2.00;;;0.25;;
72904;SDS011;61048;52.162;4.516;2022-12-07T05:32:30;2.60;;;0.30;;
72904;SDS011;61048;52.162;4.516;2022-12-07T05:34:57;2.65;;;0.30;;
72904;SDS011;61048;52.162;4.516;2022-12-07T05:37:24;4.50;;;0.35;;
72904;SDS011;61048;52.162;4.516;2022-12-07T05:39:51;0.70;;;0.10;;
72904;SDS011;61048;52.162;4.516;2022-12-07T05:42:19;1.60;;;0.20;;
72904;SDS011;61048;52.162;4.516;2022-12-07T05:44:46;4.15;;;0.30;;
72904;SDS011;61048;52.162;4.516;2022-12-07T05:47:13;3.40;;;0.28;;
72904;SDS011;61048;52.162;4.516;2022-12-07T05:49:41;1.98;;;0.35;;
72904;SDS011;61048;52.162;4.516;2022-12-07T05:52:08;1.90;;;0.50;;
72904;SDS011;61048;52.162;4.516;2022-12-07T05:54:35;2.42;;;0.30;;
72904;SDS011;61048;52.162;4.516;2022-12-07T05:57:02;2.03;;;0.70;;
72904;SDS011;61048;52.162;4.516;2022-12-07T05:59:30;4.95;;;0.30;;
72904;SDS011;61048;52.162;4.516;2022-12-07T06:01:57;2.00;;;0.82;;
72904;SDS011;61048;52.162;4.516;2022-12-07T06:04:26;2.72;;;0.30;;
72904;SDS011;61048;52.162;4.516;2022-12-07T06:06:54;1.80;;;0.30;;
72904;SDS011;61048;52.162;4.516;2022-12-07T06:09:22;3.00;;;0.30;;
72904;SDS011;61048;52.162;4.516;2022-12-07T06:11:50;1.17;;;0.20;;
72904;SDS011;61048;52.162;4.516;2022-12-07T06:14:36;1.75;;;0.77;;
72904;SDS011;61048;52.162;4.516;2022-12-07T06:17:03;56.70;;;10.13;;
72904;SDS011;61048;52.162;4.516;2022-12-07T06:19:30;39.53;;;7.43;;
72904;SDS011;61048;52.162;4.516;2022-12-07T06:21:58;36.45;;;8.23;;
72904;SDS011;61048;52.162;4.516;2022-12-07T06:24:25;37.08;;;6.97;;
72904;SDS011;61048;52.162;4.516;2022-12-07T06:26:52;28.70;;;5.55;;
72904;SDS011;61048;52.162;4.516;2022-12-07T06:29:19;29.35;;;5.00;;
72904;SDS011;61048;52.162;4.516;2022-12-07T06:31:48;29.33;;;4.68;;
72904;SDS011;61048;52.162;4.516;2022-12-07T06:34:16;24.08;;;5.10;;
72904;SDS011;61048;52.162;4.516;2022-12-07T06:36:44;26.58;;;4.93;;
72904;SDS011;61048;52.162;4.516;2022-12-07T06:39:12;20.00;;;4.18;;
72904;SDS011;61048;52.162;4.516;2022-12-07T06:41:39;24.17;;;4.40;;
72904;SDS011;61048;52.162;4.516;2022-12-07T06:44:06;23.30;;;3.88;;
72904;SDS011;61048;52.162;4.516;2022-12-07T06:46:33;23.13;;;4.15;;
72904;SDS011;61048;52.162;4.516;2022-12-07T06:49:02;20.10;;;3.88;;
72904;SDS011;61048;52.162;4.516;2022-12-07T06:51:30;19.40;;;3.78;;
72904;SDS011;61048;52.162;4.516;2022-12-07T06:53:57;14.05;;;2.50;;
72904;SDS011;61048;52.162;4.516;2022-12-07T06:56:24;19.25;;;2.70;;
72904;SDS011;61048;52.162;4.516;2022-12-07T06:58:51;13.30;;;3.70;;
72904;SDS011;61048;52.162;4.516;2022-12-07T07:01:18;13.05;;;2.80;;
72904;SDS011;61048;52.162;4.516;2022-12-07T07:03:45;17.05;;;3.47;;
72904;SDS011;61048;52.162;4.516;2022-12-07T07:06:14;14.98;;;2.45;;
72904;SDS011;61048;52.162;4.516;2022-12-07T07:08:41;17.20;;;2.40;;
72904;SDS011;61048;52.162;4.516;2022-12-07T07:11:08;11.93;;;2.30;;
72904;SDS011;61048;52.162;4.516;2022-12-07T07:13:36;16.40;;;2.95;;
72904;SDS011;61048;52.162;4.516;2022-12-07T07:16:03;13.10;;;2.35;;
72904;SDS011;61048;52.162;4.516;2022-12-07T07:18:31;12.27;;;2.17;;
72904;SDS011;61048;52.162;4.516;2022-12-07T07:20:58;14.52;;;2.15;;
72904;SDS011;61048;52.162;4.516;2022-12-07T07:23:27;9.20;;;1.45;;
72904;SDS011;61048;52.162;4.516;2022-12-07T07:25:54;14.88;;;2.13;;
72904;SDS011;61048;52.162;4.516;2022-12-07T07:28:21;11.23;;;1.50;;
72904;SDS011;61048;52.162;4.516;2022-12-07T07:30:48;9.93;;;1.33;;
72904;SDS011;61048;52.162;4.516;2022-12-07T07:33:15;11.60;;;1.45;;
72904;SDS011;61048;52.162;4.516;2022-12-07T07:35:42;12.63;;;1.48;;
72904;SDS011;61048;52.162;4.516;2022-12-07T07:38:09;10.20;;;1.50;;
72904;SDS011;61048;52.162;4.516;2022-12-07T07:40:37;22.02;;;1.50;;
72904;SDS011;61048;52.162;4.516;2022-12-07T07:43:04;9.77;;;1.20;;
72904;SDS011;61048;52.162;4.516;2022-12-07T07:45:31;7.53;;;1.20;;
72904;SDS011;61048;52.162;4.516;2022-12-07T07:47:58;7.95;;;1.27;;
72904;SDS011;61048;52.162;4.516;2022-12-07T07:50:25;6.93;;;1.63;;
72904;SDS011;61048;52.162;4.516;2022-12-07T07:52:52;10.18;;;1.00;;
72904;SDS011;61048;52.162;4.516;2022-12-07T07:55:19;3.70;;;0.77;;
72904;SDS011;61048;52.162;4.516;2022-12-07T07:57:47;14.43;;;1.27;;
72904;SDS011;61048;52.162;4.516;2022-12-07T08:00:14;5.20;;;0.82;;
72904;SDS011;61048;52.162;4.516;2022-12-07T08:02:42;7.22;;;0.70;;
72904;SDS011;61048;52.162;4.516;2022-12-07T08:05:09;9.30;;;1.13;;
72904;SDS011;61048;52.162;4.516;2022-12-07T08:07:37;3.90;;;0.82;;
72904;SDS011;61048;52.162;4.516;2022-12-07T08:10:04;5.47;;;0.40;;
72904;SDS011;61048;52.162;4.516;2022-12-07T08:12:35;4.30;;;0.98;;
72904;SDS011;61048;52.162;4.516;2022-12-07T08:15:25;3.17;;;0.40;;
72904;SDS011;61048;52.162;4.516;2022-12-07T08:17:52;4.38;;;0.52;;
72904;SDS011;61048;52.162;4.516;2022-12-07T08:20:20;2.42;;;0.40;;
72904;SDS011;61048;52.162;4.516;2022-12-07T08:22:47;4.00;;;0.40;;
72904;SDS011;61048;52.162;4.516;2022-12-07T08:25:14;3.97;;;0.47;;
72904;SDS011;61048;52.162;4.516;2022-12-07T08:27:41;3.40;;;0.63;;
72904;SDS011;61048;52.162;4.516;2022-12-07T08:30:08;4.65;;;0.50;;
72904;SDS011;61048;52.162;4.516;2022-12-07T08:32:36;4.35;;;0.47;;
72904;SDS011;61048;52.162;4.516;2022-12-07T08:35:03;1.92;;;0.60;;
72904;SDS011;61048;52.162;4.516;2022-12-07T08:37:31;3.13;;;0.50;;
72904;SDS011;61048;52.162;4.516;2022-12-07T08:39:58;4.28;;;0.43;;
72904;SDS011;61048;52.162;4.516;2022-12-07T08:42:25;3.80;;;0.38;;
72904;SDS011;61048;52.162;4.516;2022-12-07T08:44:54;2.15;;;0.30;;
72904;SDS011;61048;52.162;4.516;2022-12-07T08:47:22;4.35;;;1.05;;
72904;SDS011;61048;52.162;4.516;2022-12-07T08:49:50;2.78;;;0.82;;
72904;SDS011;61048;52.162;4.516;2022-12-07T08:52:19;1.58;;;0.20;;
72904;SDS011;61048;52.162;4.516;2022-12-07T08:54:46;2.78;;;0.20;;
72904;SDS011;61048;52.162;4.516;2022-12-07T08:57:13;3.45;;;0.30;;
72904;SDS011;61048;52.162;4.516;2022-12-07T08:59:40;3.72;;;0.22;;
72904;SDS011;61048;52.162;4.516;2022-12-07T09:02:07;2.78;;;0.40;;
72904;SDS011;61048;52.162;4.516;2022-12-07T09:04:35;4.22;;;0.50;;
72904;SDS011;61048;52.162;4.516;2022-12-07T09:07:03;2.03;;;0.20;;
72904;SDS011;61048;52.162;4.516;2022-12-07T09:09:30;4.43;;;0.40;;
72904;SDS011;61048;52.162;4.516;2022-12-07T09:11:57;1.58;;;0.30;;
72904;SDS011;61048;52.162;4.516;2022-12-07T09:14:24;2.33;;;0.22;;
72904;SDS011;61048;52.162;4.516;2022-12-07T09:16:51;3.72;;;0.30;;
72904;SDS011;61048;52.162;4.516;2022-12-07T09:19:17;3.92;;;0.52;;
72904;SDS011;61048;52.162;4.516;2022-12-07T09:21:44;2.28;;;0.32;;
72904;SDS011;61048;52.162;4.516;2022-12-07T09:24:13;1.50;;;0.30;;
72904;SDS011;61048;52.162;4.516;2022-12-07T09:26:40;1.42;;;0.15;;
72904;SDS011;61048;52.162;4.516;2022-12-07T09:29:07;3.15;;;0.75;;
72904;SDS011;61048;52.162;4.516;2022-12-07T09:31:35;2.72;;;0.40;;
72904;SDS011;61048;52.162;4.516;2022-12-07T09:34:02;1.75;;;0.30;;
72904;SDS011;61048;52.162;4.516;2022-12-07T09:36:29;4.63;;;0.70;;
72904;SDS011;61048;52.162;4.516;2022-12-07T09:38:56;1.70;;;0.40;;
72904;SDS011;61048;52.162;4.516;2022-12-07T09:41:25;2.85;;;0.70;;
72904;SDS011;61048;52.162;4.516;2022-12-07T09:43:55;3.58;;;0.50;;
72904;SDS011;61048;52.162;4.516;2022-12-07T09:46:27;2.55;;;0.40;;
72904;SDS011;61048;52.162;4.516;2022-12-07T09:48:54;3.30;;;0.65;;
72904;SDS011;61048;52.162;4.516;2022-12-07T09:51:22;3.92;;;0.40;;
72904;SDS011;61048;52.162;4.516;2022-12-07T09:53:50;1.85;;;0.30;;
72904;SDS011;61048;52.162;4.516;2022-12-07T09:56:18;5.25;;;0.73;;
72904;SDS011;61048;52.162;4.516;2022-12-07T09:58:48;2.30;;;0.40;;
72904;SDS011;61048;52.162;4.516;2022-12-07T10:01:16;2.78;;;0.30;;
72904;SDS011;61048;52.162;4.516;2022-12-07T10:03:45;4.85;;;0.60;;
72904;SDS011;61048;52.162;4.516;2022-12-07T10:06:15;2.85;;;0.50;;
72904;SDS011;61048;52.162;4.516;2022-12-07T10:08:43;2.65;;;0.43;;
72904;SDS011;61048;52.162;4.516;2022-12-07T10:11:10;6.25;;;0.55;;
72904;SDS011;61048;52.162;4.516;2022-12-07T10:13:40;5.10;;;0.60;;
72904;SDS011;61048;52.162;4.516;2022-12-07T10:16:25;2.50;;;0.30;;
72904;SDS011;61048;52.162;4.516;2022-12-07T10:18:59;4.10;;;0.63;;
72904;SDS011;61048;52.162;4.516;2022-12-07T10:21:59;7.60;;;1.02;;
72904;SDS011;61048;52.162;4.516;2022-12-07T10:24:27;4.70;;;0.30;;
72904;SDS011;61048;52.162;4.516;2022-12-07T10:26:54;3.13;;;0.40;;
72904;SDS011;61048;52.162;4.516;2022-12-07T10:29:23;4.45;;;0.30;;
72904;SDS011;61048;52.162;4.516;2022-12-07T10:31:55;3.78;;;0.88;;
72904;SDS011;61048;52.162;4.516;2022-12-07T10:34:24;3.53;;;0.52;;
72904;SDS011;61048;52.162;4.516;2022-12-07T10:36:54;3.90;;;0.38;;
72904;SDS011;61048;52.162;4.516;2022-12-07T10:39:40;5.18;;;0.65;;
72904;SDS011;61048;52.162;4.516;2022-12-07T10:42:15;3.83;;;0.43;;
72904;SDS011;61048;52.162;4.516;2022-12-07T10:44:44;3.65;;;0.35;;
72904;SDS011;61048;52.162;4.516;2022-12-07T10:47:24;2.25;;;0.50;;
72904;SDS011;61048;52.162;4.516;2022-12-07T10:50:12;3.13;;;0.22;;
72904;SDS011;61048;52.162;4.516;2022-12-07T10:52:55;3.70;;;0.40;;
72904;SDS011;61048;52.162;4.516;2022-12-07T10:55:39;3.22;;;0.40;;
72904;SDS011;61048;52.162;4.516;2022-12-07T10:58:24;1.92;;;0.32;;
72904;SDS011;61048;52.162;4.516;2022-12-07T11:01:02;2.88;;;0.30;;
72904;SDS011;61048;52.162;4.516;2022-12-07T11:03:43;3.42;;;0.30;;
72904;SDS011;61048;52.162;4.516;2022-12-07T11:06:23;3.08;;;0.22;;
72904;SDS011;61048;52.162;4.516;2022-12-07T11:09:00;1.88;;;0.38;;
72904;SDS011;61048;52.162;4.516;2022-12-07T11:11:44;3.17;;;0.68;;
72904;SDS011;61048;52.162;4.516;2022-12-07T11:14:19;4.93;;;0.40;;
72904;SDS011;61048;52.162;4.516;2022-12-07T11:16:52;3.55;;;0.45;;
72904;SDS011;61048;52.162;4.516;2022-12-07T11:19:32;4.22;;;0.40;;
72904;SDS011;61048;52.162;4.516;2022-12-07T11:22:12;1.77;;;0.17;;
72904;SDS011;61048;52.162;4.516;2022-12-07T11:24:46;2.90;;;0.55;;
72904;SDS011;61048;52.162;4.516;2022-12-07T11:27:22;3.65;;;0.28;;
72904;SDS011;61048;52.162;4.516;2022-12-07T11:30:00;2.95;;;0.30;;
72904;SDS011;61048;52.162;4.516;2022-12-07T11:32:45;2.67;;;1.38;;
72904;SDS011;61048;52.162;4.516;2022-12-07T11:35:24;2.70;;;0.35;;
72904;SDS011;61048;52.162;4.516;2022-12-07T11:38:07;2.53;;;0.40;;
72904;SDS011;61048;52.162;4.516;2022-12-07T11:40:37;3.70;;;0.35;;
72904;SDS011;61048;52.162;4.516;2022-12-07T11:43:09;3.40;;;0.63;;
72904;SDS011;61048;52.162;4.516;2022-12-07T11:45:41;3.03;;;0.32;;
72904;SDS011;61048;52.162;4.516;2022-12-07T11:48:11;2.40;;;0.47;;
72904;SDS011;61048;52.162;4.516;2022-12-07T11:50:45;5.35;;;0.57;;
72904;SDS011;61048;52.162;4.516;2022-12-07T11:53:15;3.70;;;0.40;;
72904;SDS011;61048;52.162;4.516;2022-12-07T11:55:47;4.20;;;0.50;;
72904;SDS011;61048;52.162;4.516;2022-12-07T11:58:20;2.83;;;0.50;;
72904;SDS011;61048;52.162;4.516;2022-12-07T12:01:03;2.05;;;1.08;;
72904;SDS011;61048;52.162;4.516;2022-12-07T12:03:38;2.67;;;0.30;;
72904;SDS011;61048;52.162;4.516;2022-12-07T12:06:11;2.45;;;0.40;;
72904;SDS011;61048;52.162;4.516;2022-12-07T12:08:39;1.75;;;0.98;;
72904;SDS011;61048;52.162;4.516;2022-12-07T12:11:13;2.70;;;0.30;;
72904;SDS011;61048;52.162;4.516;2022-12-07T12:13:57;2.58;;;0.43;;
72904;SDS011;61048;52.162;4.516;2022-12-07T12:16:41;2.53;;;0.28;;
72904;SDS011;61048;52.162;4.516;2022-12-07T12:19:32;2.38;;;0.22;;
72904;SDS011;61048;52.162;4.516;2022-12-07T12:22:06;3.95;;;0.50;;
72904;SDS011;61048;52.162;4.516;2022-12-07T12:24:39;2.67;;;0.70;;
72904;SDS011;61048;52.162;4.516;2022-12-07T12:27:09;1.77;;;0.22;;
72904;SDS011;61048;52.162;4.516;2022-12-07T12:29:44;3.47;;;0.70;;
72904;SDS011;61048;52.162;4.516;2022-12-07T12:32:18;1.80;;;0.30;;
72904;SDS011;61048;52.162;4.516;2022-12-07T12:34:57;3.25;;;0.40;;
72904;SDS011;61048;52.162;4.516;2022-12-07T12:37:47;1.75;;;0.63;;
72904;SDS011;61048;52.162;4.516;2022-12-07T12:55:23;1.42;;;0.20;;
72904;SDS011;61048;52.162;4.516;2022-12-07T12:58:30;2.97;;;0.50;;
72904;SDS011;61048;52.162;4.516;2022-12-07T13:04:02;3.83;;;0.35;;
72904;SDS011;61048;52.162;4.516;2022-12-07T13:06:40;1.67;;;0.22;;
72904;SDS011;61048;52.162;4.516;2022-12-07T13:09:15;3.67;;;0.30;;
72904;SDS011;61048;52.162;4.516;2022-12-07T13:11:48;2.60;;;0.25;;
72904;SDS011;61048;52.162;4.516;2022-12-07T13:14:42;1.42;;;0.30;;
72904;SDS011;61048;52.162;4.516;2022-12-07T13:23:27;3.25;;;0.43;;
72904;SDS011;61048;52.162;4.516;2022-12-07T13:26:13;2.17;;;0.30;;
72904;SDS011;61048;52.162;4.516;2022-12-07T13:28:44;2.72;;;0.30;;
72904;SDS011;61048;52.162;4.516;2022-12-07T13:31:20;2.78;;;0.35;;
72904;SDS011;61048;52.162;4.516;2022-12-07T13:33:57;2.45;;;0.35;;
72904;SDS011;61048;52.162;4.516;2022-12-07T13:36:25;2.05;;;0.30;;
72904;SDS011;61048;52.162;4.516;2022-12-07T13:38:54;4.70;;;1.00;;
72904;SDS011;61048;52.162;4.516;2022-12-07T13:41:23;2.88;;;0.30;;
72904;SDS011;61048;52.162;4.516;2022-12-07T13:43:53;1.90;;;0.20;;
72904;SDS011;61048;52.162;4.516;2022-12-07T13:46:27;2.55;;;0.22;;
72904;SDS011;61048;52.162;4.516;2022-12-07T13:49:01;1.73;;;0.30;;
72904;SDS011;61048;52.162;4.516;2022-12-07T13:51:28;1.92;;;0.20;;
72904;SDS011;61048;52.162;4.516;2022-12-07T13:54:08;1.88;;;0.30;;
72904;SDS011;61048;52.162;4.516;2022-12-07T13:56:37;3.13;;;0.20;;
72904;SDS011;61048;52.162;4.516;2022-12-07T13:59:07;3.03;;;0.30;;
72904;SDS011;61048;52.162;4.516;2022-12-07T14:01:39;2.88;;;0.35;;
72904;SDS011;61048;52.162;4.516;2022-12-07T14:04:19;2.53;;;0.30;;
72904;SDS011;61048;52.162;4.516;2022-12-07T14:07:00;2.25;;;1.48;;
72904;SDS011;61048;52.162;4.516;2022-12-07T14:09:52;1.92;;;0.22;;
72904;SDS011;61048;52.162;4.516;2022-12-07T14:12:20;1.23;;;0.20;;
72904;SDS011;61048;52.162;4.516;2022-12-07T14:14:49;4.00;;;0.20;;
72904;SDS011;61048;52.162;4.516;2022-12-07T14:17:17;3.13;;;0.30;;
72904;SDS011;61048;52.162;4.516;2022-12-07T14:19:49;2.80;;;0.30;;
72904;SDS011;61048;52.162;4.516;2022-12-07T14:22:21;2.00;;;0.20;;
72904;SDS011;61048;52.162;4.516;2022-12-07T14:25:00;2.53;;;0.30;;
72904;SDS011;61048;52.162;4.516;2022-12-07T14:27:46;1.98;;;0.40;;
72904;SDS011;61048;52.162;4.516;2022-12-07T14:30:22;2.95;;;0.60;;
72904;SDS011;61048;52.162;4.516;2022-12-07T14:32:51;0.95;;;0.13;;
72904;SDS011;61048;52.162;4.516;2022-12-07T14:35:20;1.67;;;0.20;;
72904;SDS011;61048;52.162;4.516;2022-12-07T14:37:47;0.90;;;0.30;;
72904;SDS011;61048;52.162;4.516;2022-12-07T14:40:16;3.47;;;1.40;;
72904;SDS011;61048;52.162;4.516;2022-12-07T14:42:45;1.58;;;0.50;;
72904;SDS011;61048;52.162;4.516;2022-12-07T14:45:14;2.05;;;0.25;;
72904;SDS011;61048;52.162;4.516;2022-12-07T14:47:44;1.77;;;0.50;;
72904;SDS011;61048;52.162;4.516;2022-12-07T14:50:11;0.68;;;0.28;;
72904;SDS011;61048;52.162;4.516;2022-12-07T14:52:39;2.70;;;0.30;;
72904;SDS011;61048;52.162;4.516;2022-12-07T14:55:12;1.15;;;0.20;;
72904;SDS011;61048;52.162;4.516;2022-12-07T14:57:41;2.88;;;0.30;;
72904;SDS011;61048;52.162;4.516;2022-12-07T15:00:09;3.15;;;0.38;;
72904;SDS011;61048;52.162;4.516;2022-12-07T15:02:40;1.40;;;0.20;;
72904;SDS011;61048;52.162;4.516;2022-12-07T15:05:08;1.70;;;0.25;;
72904;SDS011;61048;52.162;4.516;2022-12-07T15:07:35;1.92;;;0.43;;
72904;SDS011;61048;52.162;4.516;2022-12-07T15:10:03;3.15;;;0.25;;
72904;SDS011;61048;52.162;4.516;2022-12-07T15:12:31;2.55;;;0.32;;
72904;SDS011;61048;52.162;4.516;2022-12-07T15:14:58;3.17;;;0.90;;
72904;SDS011;61048;52.162;4.516;2022-12-07T15:17:26;2.05;;;0.40;;
72904;SDS011;61048;52.162;4.516;2022-12-07T15:19:53;1.83;;;0.30;;
72904;SDS011;61048;52.162;4.516;2022-12-07T15:22:21;2.00;;;0.30;;
72904;SDS011;61048;52.162;4.516;2022-12-07T15:24:48;2.40;;;0.38;;
72904;SDS011;61048;52.162;4.516;2022-12-07T15:27:15;2.00;;;0.20;;
72904;SDS011;61048;52.162;4.516;2022-12-07T15:29:42;4.75;;;0.32;;
72904;SDS011;61048;52.162;4.516;2022-12-07T15:32:09;2.63;;;0.68;;
72904;SDS011;61048;52.162;4.516;2022-12-07T15:34:36;3.22;;;0.28;;